Time;durP1;ratioP1;P1;durP2;ratioP2;P2;SDS_P1;SDS_P2;PMS_P1;PMS_P2;Temp;Humidity;BMP_temperature;BMP_pressure;BME280_temperature;BME280_humidity;BME280_pressure;Samples;Min_cycle;Max_cycle;Signal;HPM_P1;HPM_P2
2021/08/08 00:00:58;;;;;;;14.93;3.90;;;16.90;96.30;;;;;;5075617;28;20187;-78
2021/08/08 00:03:25;;;;;;;10.77;3.80;;;16.80;95.80;;;;;;5075613;28;20163;-79
2021/08/08 00:05:51;;;;;;;9.97;3.90;;;16.90;96.20;;;;;;5059457;28;20531;-80
2021/08/08 00:08:18;;;;;;;11.87;3.40;;;16.80;96.10;;;;;;5081529;28;20176;-79
2021/08/08 00:10:44;;;;;;;14.23;3.60;;;16.70;95.90;;;;;;5063163;28;20176;-78
2021/08/08 00:13:10;;;;;;;15.10;4.20;;;16.80;95.30;;;;;;5081474;28;20172;-79
2021/08/08 00:15:38;;;;;;;10.53;3.50;;;16.70;95.10;;;;;;5079602;28;20249;-79
2021/08/08 00:18:05;;;;;;;11.40;3.87;;;16.70;95.40;;;;;;5081275;28;20152;-78
2021/08/08 00:20:31;;;;;;;8.50;3.20;;;16.70;95.00;;;;;;5078764;28;20628;-78
2021/08/08 00:22:57;;;;;;;13.40;3.80;;;16.80;95.60;;;;;;5075961;28;20172;-78
2021/08/08 00:25:24;;;;;;;12.23;3.20;;;16.70;94.30;;;;;;5058250;28;20279;-78
2021/08/08 00:27:50;;;;;;;12.63;3.27;;;16.60;94.10;;;;;;5074008;28;20163;-77
2021/08/08 00:30:16;;;;;;;9.50;3.20;;;16.60;94.20;;;;;;5074334;28;20169;-79
2021/08/08 00:32:42;;;;;;;11.57;3.93;;;16.50;94.70;;;;;;5056636;28;20706;-78
2021/08/08 00:35:09;;;;;;;11.10;3.50;;;16.70;94.10;;;;;;5076024;28;20662;-80
2021/08/08 00:37:36;;;;;;;11.53;3.33;;;16.60;93.30;;;;;;5057591;28;20172;-80
2021/08/08 00:40:04;;;;;;;11.87;3.43;;;16.50;93.80;;;;;;5074549;28;20172;-77
2021/08/08 00:42:30;;;;;;;12.70;3.73;;;16.40;94.30;;;;;;5074421;28;20522;-80
2021/08/08 00:44:56;;;;;;;14.63;3.80;;;16.30;94.80;;;;;;5073644;28;20185;-80
2021/08/08 00:47:21;;;;;;;11.60;3.47;;;16.40;95.20;;;;;;5073672;28;20168;-80
2021/08/08 00:49:48;;;;;;;12.23;3.20;;;16.50;94.30;;;;;;5074219;28;20160;-79
2021/08/08 00:52:14;;;;;;;11.80;4.17;;;16.40;94.10;;;;;;5074584;28;20180;-78
2021/08/08 00:54:39;;;;;;;9.73;3.57;;;16.50;94.20;;;;;;5056542;28;20215;-78
2021/08/08 00:57:05;;;;;;;9.57;3.30;;;16.40;94.10;;;;;;5074948;28;20616;-79
2021/08/08 00:59:31;;;;;;;12.10;3.57;;;16.30;94.30;;;;;;5056293;28;20216;-81
2021/08/08 01:01:59;;;;;;;11.63;4.10;;;16.30;94.20;;;;;;5074579;28;20179;-80
2021/08/08 01:04:32;;;;;;;11.37;3.53;;;16.30;94.00;;;;;;5074555;28;20168;-79
2021/08/08 01:07:18;;;;;;;15.20;4.30;;;16.30;94.40;;;;;;5074480;28;20175;-80
2021/08/08 01:09:48;;;;;;;15.23;3.70;;;16.20;95.10;;;;;;5074055;28;20175;-78
2021/08/08 01:12:14;;;;;;;12.77;3.50;;;16.20;94.50;;;;;;5073846;28;20172;-80
2021/08/08 01:14:40;;;;;;;10.50;3.63;;;16.20;94.60;;;;;;5073801;28;20547;-82
2021/08/08 01:17:08;;;;;;;14.90;3.83;;;16.30;94.70;;;;;;5073523;28;20168;-80
2021/08/08 01:19:43;;;;;;;12.70;3.80;;;16.20;94.70;;;;;;5073544;28;20172;-78
2021/08/08 01:22:09;;;;;;;15.43;4.20;;;16.30;94.80;;;;;;5058363;28;20179;-78
2021/08/08 01:24:36;;;;;;;12.67;3.40;;;16.20;94.50;;;;;;5076725;28;20192;-79
2021/08/08 01:27:03;;;;;;;10.37;3.83;;;16.30;94.40;;;;;;5076951;28;20176;-79
2021/08/08 01:29:30;;;;;;;19.33;4.07;;;16.30;93.70;;;;;;5076768;28;20251;-80
2021/08/08 01:31:56;;;;;;;14.10;3.70;;;16.30;94.00;;;;;;5076449;28;20247;-78
2021/08/08 01:34:21;;;;;;;11.47;3.40;;;16.30;93.90;;;;;;5076668;28;20214;-80
2021/08/08 01:36:47;;;;;;;12.83;4.00;;;16.40;92.60;;;;;;5077152;28;20577;-78
2021/08/08 01:39:19;;;;;;;10.73;3.77;;;16.40;92.70;;;;;;5076726;28;20226;-78
2021/08/08 01:41:54;;;;;;;13.33;3.90;;;16.30;93.40;;;;;;5076593;28;20165;-78
2021/08/08 01:44:23;;;;;;;12.73;3.47;;;16.50;93.00;;;;;;5059629;28;20183;-78
2021/08/08 01:46:53;;;;;;;15.40;3.83;;;16.40;92.60;;;;;;5077762;28;20271;-80
2021/08/08 01:49:22;;;;;;;12.43;4.60;;;16.50;92.50;;;;;;5077822;28;20558;-80
2021/08/08 01:51:50;;;;;;;10.40;3.40;;;16.40;93.00;;;;;;5076708;28;20168;-77
2021/08/08 01:54:16;;;;;;;12.47;3.67;;;16.50;93.20;;;;;;5076354;28;20203;-81
2021/08/08 01:56:42;;;;;;;17.57;4.27;;;16.40;93.30;;;;;;5076464;28;20175;-79
2021/08/08 01:59:08;;;;;;;13.60;4.23;;;16.40;93.30;;;;;;5075761;28;20206;-81
2021/08/08 02:01:34;;;;;;;12.20;4.27;;;16.30;93.20;;;;;;5076247;28;20172;-78
2021/08/08 02:03:59;;;;;;;14.40;5.03;;;16.50;93.40;;;;;;5076173;28;20547;-78
2021/08/08 02:06:25;;;;;;;12.57;3.60;;;16.50;93.50;;;;;;5076274;28;20171;-78
2021/08/08 02:08:50;;;;;;;10.00;3.53;;;16.40;92.70;;;;;;5076147;28;20192;-80
2021/08/08 02:11:16;;;;;;;12.63;3.67;;;16.50;92.60;;;;;;5058344;28;20171;-79
2021/08/08 02:13:42;;;;;;;15.37;4.13;;;16.40;92.70;;;;;;5075089;28;20172;-80
2021/08/08 02:16:07;;;;;;;14.63;4.03;;;16.40;92.80;;;;;;5075620;28;20679;-79
2021/08/08 02:18:33;;;;;;;16.73;4.13;;;16.30;93.00;;;;;;5076502;28;20175;-78
2021/08/08 02:20:59;;;;;;;13.17;5.03;;;16.30;93.30;;;;;;5075742;28;20177;-80
2021/08/08 02:23:24;;;;;;;14.00;4.10;;;16.30;93.40;;;;;;5076404;28;20181;-79
2021/08/08 02:25:51;;;;;;;14.93;4.23;;;16.20;93.10;;;;;;5075669;28;20192;-81
2021/08/08 02:28:17;;;;;;;15.23;3.97;;;16.20;93.40;;;;;;5075685;28;20168;-80
2021/08/08 02:30:43;;;;;;;13.70;4.40;;;16.30;93.10;;;;;;5076246;28;20168;-80
2021/08/08 02:33:09;;;;;;;15.50;4.17;;;16.20;93.30;;;;;;5075210;28;20168;-78
2021/08/08 02:35:35;;;;;;;12.93;4.10;;;16.20;94.00;;;;;;5076328;28;20267;-79
2021/08/08 02:38:01;;;;;;;10.53;3.93;;;16.10;94.50;;;;;;5076201;28;20259;-78
2021/08/08 02:40:26;;;;;;;10.63;3.70;;;16.10;94.20;;;;;;5076851;28;20654;-78
2021/08/08 02:42:52;;;;;;;15.53;4.27;;;16.20;94.00;;;;;;5075492;28;20202;-81
2021/08/08 02:45:18;;;;;;;12.73;3.40;;;16.20;93.90;;;;;;5075836;28;20253;-78
2021/08/08 02:47:44;;;;;;;11.63;3.93;;;16.20;94.10;;;;;;5075646;28;20254;-79
2021/08/08 02:50:11;;;;;;;18.07;4.33;;;16.20;93.70;;;;;;5074375;28;20183;-78
2021/08/08 02:52:41;;;;;;;16.50;4.13;;;16.20;93.90;;;;;;5074553;28;20168;-80
2021/08/08 02:55:08;;;;;;;18.30;4.77;;;16.10;94.20;;;;;;5073918;28;20214;-80
2021/08/08 02:57:34;;;;;;;12.07;3.47;;;16.00;94.90;;;;;;5074012;28;20218;-80
2021/08/08 02:59:59;;;;;;;14.57;4.57;;;16.00;94.60;;;;;;5074064;28;20534;-80
2021/08/08 03:02:25;;;;;;;16.83;4.43;;;16.00;94.70;;;;;;5056200;28;20200;-78
2021/08/08 03:04:50;;;;;;;13.87;4.40;;;16.10;95.10;;;;;;5056045;28;20172;-78
2021/08/08 03:07:16;;;;;;;11.33;4.53;;;16.00;94.50;;;;;;5073978;28;20172;-79
2021/08/08 03:09:42;;;;;;;18.07;4.43;;;16.00;94.40;;;;;;5073854;28;20164;-78
2021/08/08 03:12:08;;;;;;;14.63;4.20;;;16.00;94.40;;;;;;5073434;28;20224;-78
2021/08/08 03:14:33;;;;;;;11.50;3.77;;;16.10;94.00;;;;;;5073952;28;20213;-79
2021/08/08 03:16:59;;;;;;;13.57;4.37;;;16.10;93.40;;;;;;5056091;28;20545;-78
2021/08/08 03:19:25;;;;;;;11.77;4.47;;;16.20;92.90;;;;;;5074398;28;20172;-78
2021/08/08 03:21:50;;;;;;;11.27;3.63;;;16.10;93.30;;;;;;5075484;28;20196;-78
2021/08/08 03:24:16;;;;;;;11.10;3.53;;;16.10;93.20;;;;;;5074865;28;20226;-77
2021/08/08 03:26:42;;;;;;;10.90;3.93;;;16.20;93.00;;;;;;5074049;28;20211;-78
2021/08/08 03:29:08;;;;;;;15.93;4.00;;;16.10;92.30;;;;;;5073926;28;20526;-79
2021/08/08 03:31:36;;;;;;;14.23;3.60;;;16.10;92.50;;;;;;5073461;28;20241;-78
2021/08/08 03:34:01;;;;;;;15.83;4.07;;;16.10;92.60;;;;;;5073908;28;20230;-82
2021/08/08 03:36:27;;;;;;;12.13;3.87;;;16.10;92.00;;;;;;5073703;28;20180;-80
2021/08/08 03:38:53;;;;;;;13.17;4.00;;;16.10;91.80;;;;;;5073535;28;20175;-77
2021/08/08 03:41:19;;;;;;;15.20;4.37;;;16.20;90.20;;;;;;5073477;28;20172;-79
2021/08/08 03:43:44;;;;;;;11.87;3.40;;;16.10;91.20;;;;;;5073370;28;20694;-79
2021/08/08 03:46:10;;;;;;;15.57;4.40;;;16.10;91.70;;;;;;5073552;28;20179;-76
2021/08/08 03:48:36;;;;;;;11.23;4.27;;;16.20;91.90;;;;;;5055478;28;20179;-79
2021/08/08 03:51:02;;;;;;;12.90;4.57;;;16.10;90.90;;;;;;5073685;28;20251;-79
2021/08/08 03:53:27;;;;;;;10.90;4.03;;;16.10;91.40;;;;;;5057925;28;20191;-77
2021/08/08 03:55:53;;;;;;;14.17;4.27;;;16.10;91.60;;;;;;5074398;28;20211;-80
2021/08/08 03:58:18;;;;;;;15.23;4.70;;;16.00;91.50;;;;;;5058998;28;20179;-76
2021/08/08 04:00:44;;;;;;;10.57;3.67;;;16.10;91.50;;;;;;5089287;28;20224;-75
2021/08/08 04:03:10;;;;;;;13.80;4.37;;;16.20;90.20;;;;;;5090748;28;20183;-77
2021/08/08 04:05:35;;;;;;;10.93;4.33;;;16.10;90.60;;;;;;5077807;28;20164;-78
2021/08/08 04:08:01;;;;;;;12.57;4.20;;;16.10;90.20;;;;;;5080155;28;20188;-77
2021/08/08 04:10:27;;;;;;;15.23;4.63;;;16.10;90.70;;;;;;5078823;28;20621;-77
2021/08/08 04:12:52;;;;;;;14.30;3.90;;;16.20;89.50;;;;;;5075246;28;20293;-76
2021/08/08 04:15:18;;;;;;;11.50;4.43;;;16.40;87.70;;;;;;5083911;28;20664;-77
2021/08/08 04:17:44;;;;;;;15.27;4.20;;;16.20;86.40;;;;;;5086092;28;20172;-76
2021/08/08 04:20:10;;;;;;;12.97;4.13;;;16.20;86.90;;;;;;5093232;28;20195;-77
2021/08/08 04:22:37;;;;;;;13.90;4.27;;;16.10;88.30;;;;;;5092037;28;20184;-82
2021/08/08 04:25:03;;;;;;;20.77;4.50;;;16.10;88.50;;;;;;5074663;28;20203;-81
2021/08/08 04:27:28;;;;;;;11.23;4.50;;;16.00;89.70;;;;;;5074284;28;20178;-79
2021/08/08 04:29:54;;;;;;;13.37;4.30;;;16.00;90.20;;;;;;5089511;28;20172;-76
2021/08/08 04:32:20;;;;;;;15.37;4.93;;;16.00;90.10;;;;;;5093662;28;20175;-76
2021/08/08 04:34:45;;;;;;;15.30;4.00;;;16.00;89.10;;;;;;5082688;28;20671;-79
2021/08/08 04:37:11;;;;;;;12.67;4.10;;;16.00;90.20;;;;;;5074946;28;20165;-79
2021/08/08 04:39:37;;;;;;;14.17;4.07;;;16.00;90.00;;;;;;5073576;28;20160;-79
2021/08/08 04:42:03;;;;;;;15.90;4.40;;;16.10;88.20;;;;;;5072658;28;20671;-77
2021/08/08 04:44:28;;;;;;;15.60;4.60;;;16.10;85.10;;;;;;5072768;28;20184;-77
2021/08/08 04:46:54;;;;;;;13.00;4.63;;;16.10;86.00;;;;;;5072777;28;20172;-77
2021/08/08 04:49:20;;;;;;;11.83;4.27;;;16.00;86.60;;;;;;5072776;28;20581;-77
2021/08/08 04:51:46;;;;;;;19.07;4.60;;;16.00;87.30;;;;;;5072789;28;20205;-78
2021/08/08 04:54:11;;;;;;;17.57;5.00;;;15.90;88.20;;;;;;5072407;28;20174;-78
2021/08/08 04:56:37;;;;;;;16.10;4.73;;;15.90;90.00;;;;;;5075030;28;20224;-79
2021/08/08 04:59:03;;;;;;;16.93;4.80;;;16.00;88.10;;;;;;5076331;28;20665;-78
2021/08/08 05:01:29;;;;;;;16.27;4.67;;;16.00;86.70;;;;;;5076354;28;20532;-78
2021/08/08 05:03:56;;;;;;;17.27;4.33;;;15.80;89.00;;;;;;5058375;28;20581;-77
2021/08/08 05:06:22;;;;;;;15.57;4.63;;;15.80;89.00;;;;;;5076164;28;20171;-80
2021/08/08 05:08:47;;;;;;;10.83;4.27;;;15.80;90.70;;;;;;5075977;28;20215;-78
2021/08/08 05:11:18;;;;;;;14.53;4.20;;;15.90;89.30;;;;;;5078465;28;20176;-77
2021/08/08 05:13:44;;;;;;;17.83;5.17;;;15.90;87.50;;;;;;5077822;28;20242;-79
2021/08/08 05:16:10;;;;;;;12.00;4.30;;;15.80;88.60;;;;;;5078399;28;20680;-78
2021/08/08 05:18:35;;;;;;;16.13;5.03;;;15.80;88.60;;;;;;5076749;28;20160;-81
2021/08/08 05:21:01;;;;;;;15.73;5.50;;;15.70;88.10;;;;;;5079361;28;20239;-81
2021/08/08 05:23:27;;;;;;;16.03;5.13;;;16.00;88.90;;;;;;5078242;28;20169;-79
2021/08/08 05:25:58;;;;;;;12.47;4.50;;;15.80;90.30;;;;;;5077392;28;20257;-80
2021/08/08 05:28:24;;;;;;;19.10;4.43;;;15.70;89.10;;;;;;5076285;28;20168;-79
2021/08/08 05:30:49;;;;;;;15.33;4.43;;;15.80;89.40;;;;;;5077577;28;20677;-78
2021/08/08 05:33:15;;;;;;;13.30;4.33;;;15.80;89.60;;;;;;5077958;28;20504;-77
2021/08/08 05:35:41;;;;;;;13.37;4.03;;;15.90;86.90;;;;;;5076842;28;20242;-77
2021/08/08 05:38:07;;;;;;;13.40;4.50;;;15.80;86.20;;;;;;5076428;28;20168;-78
2021/08/08 05:40:33;;;;;;;15.57;5.20;;;15.70;86.00;;;;;;5059115;28;20183;-82
2021/08/08 05:42:58;;;;;;;18.93;4.93;;;15.70;87.60;;;;;;5076801;28;20252;-78
2021/08/08 05:45:24;;;;;;;14.07;4.80;;;15.70;87.60;;;;;;5060289;28;20182;-79
2021/08/08 05:47:50;;;;;;;17.03;4.63;;;15.80;86.60;;;;;;5060721;28;20659;-79
2021/08/08 05:50:16;;;;;;;11.53;4.40;;;15.70;86.10;;;;;;5060189;28;20200;-77
2021/08/08 05:52:49;;;;;;;10.50;5.17;;;15.80;85.10;;;;;;5076616;28;20547;-77
2021/08/08 05:55:15;;;;;;;13.47;4.40;;;15.80;86.10;;;;;;5076359;28;20204;-79
2021/08/08 05:57:41;;;;;;;14.47;4.80;;;15.80;85.90;;;;;;5076322;28;20165;-78
2021/08/08 06:00:07;;;;;;;15.13;5.10;;;16.00;80.60;;;;;;5075286;28;20171;-77
2021/08/08 06:02:33;;;;;;;14.70;4.60;;;15.90;80.00;;;;;;5077223;28;20222;-79
2021/08/08 06:04:59;;;;;;;11.80;4.23;;;16.00;79.60;;;;;;5077587;28;20165;-78
2021/08/08 06:07:24;;;;;;;10.17;4.50;;;15.90;80.10;;;;;;5075856;28;20495;-77
2021/08/08 06:09:50;;;;;;;13.20;4.47;;;15.90;81.30;;;;;;5077232;28;20171;-78
2021/08/08 06:12:16;;;;;;;12.97;4.17;;;16.00;80.60;;;;;;5076610;28;20168;-79
2021/08/08 06:14:41;;;;;;;11.97;4.37;;;15.90;81.00;;;;;;5075234;28;20219;-77
2021/08/08 06:17:07;;;;;;;12.33;4.43;;;15.90;81.60;;;;;;5075226;28;20264;-79
2021/08/08 06:19:32;;;;;;;9.67;3.77;;;15.90;81.20;;;;;;5075016;28;20252;-77
2021/08/08 06:21:58;;;;;;;14.90;4.43;;;15.90;79.30;;;;;;5074678;28;20191;-81
2021/08/08 06:24:24;;;;;;;14.80;4.53;;;16.00;78.60;;;;;;5075082;28;20183;-77
2021/08/08 06:26:49;;;;;;;11.47;3.70;;;15.90;78.10;;;;;;5056948;28;20270;-80
2021/08/08 06:29:15;;;;;;;14.13;4.57;;;16.10;78.10;;;;;;5074535;28;20180;-77
2021/08/08 06:31:41;;;;;;;14.13;4.17;;;16.10;75.30;;;;;;5074685;28;20579;-78
2021/08/08 06:34:06;;;;;;;10.77;3.70;;;16.30;72.20;;;;;;5074709;28;20199;-77
2021/08/08 06:36:32;;;;;;;13.47;3.87;;;16.40;68.40;;;;;;5074212;28;20168;-78
2021/08/08 06:39:00;;;;;;;13.90;4.07;;;16.30;67.10;;;;;;5075120;28;20172;-78
2021/08/08 06:41:25;;;;;;;9.33;3.70;;;16.20;66.50;;;;;;5056843;28;20180;-79
2021/08/08 06:43:51;;;;;;;10.37;3.83;;;16.20;67.50;;;;;;5075070;28;20180;-78
2021/08/08 06:46:17;;;;;;;15.93;3.63;;;16.30;68.70;;;;;;5074986;28;20161;-82
2021/08/08 06:48:43;;;;;;;11.13;3.70;;;16.30;64.50;;;;;;5075581;28;20180;-79
2021/08/08 06:51:08;;;;;;;12.33;3.83;;;16.30;64.10;;;;;;5075231;28;20640;-78
2021/08/08 06:53:34;;;;;;;12.77;3.63;;;16.20;67.20;;;;;;5075200;28;20167;-78
2021/08/08 06:56:00;;;;;;;13.73;4.10;;;16.50;65.90;;;;;;5075225;28;20292;-78
2021/08/08 06:58:25;;;;;;;11.63;3.47;;;16.40;65.00;;;;;;5074935;28;20176;-79
2021/08/08 07:00:51;;;;;;;11.43;4.10;;;16.50;58.90;;;;;;5074460;28;20184;-79
2021/08/08 07:03:17;;;;;;;10.83;3.53;;;16.50;58.90;;;;;;5074824;28;20222;-81
2021/08/08 07:05:42;;;;;;;16.60;4.27;;;16.50;60.00;;;;;;5074129;28;20169;-77
2021/08/08 07:08:09;;;;;;;9.70;3.90;;;16.50;58.60;;;;;;5074507;28;20188;-77
2021/08/08 07:10:35;;;;;;;13.57;3.80;;;16.50;58.20;;;;;;5075095;28;20252;-78
2021/08/08 07:13:00;;;;;;;11.13;4.10;;;16.40;59.40;;;;;;5075178;28;20195;-80
2021/08/08 07:15:26;;;;;;;11.40;3.67;;;16.60;59.80;;;;;;5075149;28;20212;-78
2021/08/08 07:17:52;;;;;;;11.03;3.77;;;16.50;56.80;;;;;;5075581;28;20180;-79
2021/08/08 07:20:17;;;;;;;13.23;3.77;;;16.50;54.40;;;;;;5074323;28;20294;-78
2021/08/08 07:22:43;;;;;;;14.03;4.47;;;16.50;55.40;;;;;;5075090;28;20310;-80
2021/08/08 07:25:09;;;;;;;12.80;3.57;;;16.40;56.30;;;;;;5075769;28;20188;-80
2021/08/08 07:27:35;;;;;;;9.03;3.60;;;16.50;56.20;;;;;;5074498;28;20632;-78
2021/08/08 07:30:01;;;;;;;12.57;3.57;;;16.50;55.60;;;;;;5074300;28;20173;-78
2021/08/08 07:32:26;;;;;;;10.20;3.10;;;16.40;55.10;;;;;;5073363;28;20179;-77
2021/08/08 07:34:52;;;;;;;12.43;3.70;;;16.30;58.30;;;;;;5073631;28;20211;-79
2021/08/08 07:37:19;;;;;;;12.53;4.03;;;16.30;59.00;;;;;;5074205;28;20606;-78
2021/08/08 07:39:44;;;;;;;14.83;3.43;;;16.50;59.00;;;;;;5073614;28;20238;-77
2021/08/08 07:42:10;;;;;;;10.30;3.10;;;16.50;58.20;;;;;;5073552;28;20503;-77
2021/08/08 07:44:36;;;;;;;10.83;3.87;;;16.50;54.00;;;;;;5055398;28;20184;-79
2021/08/08 07:47:02;;;;;;;11.30;3.97;;;16.60;53.30;;;;;;5073880;28;20176;-80
2021/08/08 07:49:28;;;;;;;9.50;3.33;;;16.50;52.90;;;;;;5073957;28;20163;-80
2021/08/08 07:51:54;;;;;;;10.27;3.63;;;16.50;56.20;;;;;;5056217;28;20176;-81
2021/08/08 07:54:21;;;;;;;11.20;3.93;;;16.50;54.00;;;;;;5074027;28;20176;-79
2021/08/08 07:56:47;;;;;;;15.60;4.17;;;16.60;51.90;;;;;;5055484;28;20176;-80
2021/08/08 07:59:12;;;;;;;10.20;3.30;;;16.60;50.90;;;;;;5055424;28;20179;-82
2021/08/08 08:01:38;;;;;;;11.93;3.90;;;16.60;50.70;;;;;;5055697;28;20675;-79
2021/08/08 08:04:04;;;;;;;12.60;3.53;;;16.50;53.50;;;;;;5074614;28;20191;-80
2021/08/08 08:06:30;;;;;;;10.63;3.50;;;16.60;50.40;;;;;;5077555;28;20624;-81
2021/08/08 08:08:56;;;;;;;16.40;3.70;;;16.60;49.00;;;;;;5087030;28;20184;-77
2021/08/08 08:11:21;;;;;;;10.27;3.60;;;16.70;47.20;;;;;;5087447;28;20168;-77
2021/08/08 08:13:47;;;;;;;9.20;3.60;;;16.70;46.60;;;;;;5084378;28;20176;-81
2021/08/08 08:16:12;;;;;;;8.87;3.73;;;16.80;47.30;;;;;;5075632;28;20235;-82
2021/08/08 08:18:38;;;;;;;9.23;3.40;;;16.80;45.90;;;;;;5075707;28;20176;-80
2021/08/08 08:21:04;;;;;;;11.37;3.20;;;16.80;40.00;;;;;;5056293;28;20660;-78
2021/08/08 08:23:29;;;;;;;13.70;3.83;;;16.80;37.10;;;;;;5056787;28;20278;-80
2021/08/08 08:25:55;;;;;;;12.17;3.63;;;16.90;37.50;;;;;;5074428;28;20211;-79
2021/08/08 08:28:21;;;;;;;9.83;3.03;;;16.90;38.80;;;;;;5076087;28;20168;-80
2021/08/08 08:30:46;;;;;;;10.13;3.63;;;16.80;38.10;;;;;;5081784;28;20222;-77
2021/08/08 08:33:12;;;;;;;10.70;4.00;;;16.90;37.30;;;;;;5072002;28;20167;-77
2021/08/08 08:35:38;;;;;;;11.57;3.00;;;16.90;32.00;;;;;;5091339;28;20710;-77
2021/08/08 08:38:05;;;;;;;9.70;3.40;;;17.00;31.70;;;;;;5079208;28;20163;-77
2021/08/08 08:40:36;;;;;;;13.97;3.50;;;17.20;27.20;;;;;;5078567;28;20169;-78
2021/08/08 08:43:03;;;;;;;13.07;3.60;;;17.30;22.00;;;;;;5090693;28;20223;-78
2021/08/08 08:45:30;;;;;;;11.27;3.23;;;17.40;17.30;;;;;;5087231;28;20175;-80
2021/08/08 08:47:57;;;;;;;13.33;3.27;;;17.60;4.70;;;;;;5083827;28;20185;-80
2021/08/08 08:50:30;;;;;;;11.60;3.30;;;17.60;1.00;;;;;;5084128;28;20617;-80
2021/08/08 08:52:56;;;;;;;11.93;3.03;;;17.60;1.00;;;;;;5082664;28;20163;-83
2021/08/08 08:55:22;;;;;;;8.50;2.90;;;17.60;1.00;;;;;;5081247;28;20196;-82
2021/08/08 08:57:48;;;;;;;10.37;3.00;;;17.60;1.00;;;;;;5062096;28;20570;-79
2021/08/08 09:00:14;;;;;;;9.43;3.13;;;17.70;1.00;;;;;;5064879;28;20180;-79
2021/08/08 09:02:41;;;;;;;9.97;3.10;;;17.60;1.00;;;;;;5080895;28;20170;-79
2021/08/08 09:05:07;;;;;;;6.70;2.63;;;17.80;1.00;;;;;;5081078;28;20636;-79
2021/08/08 09:07:32;;;;;;;11.07;2.77;;;17.90;1.00;;;;;;5061797;28;20173;-78
2021/08/08 09:09:58;;;;;;;8.67;2.50;;;18.00;1.00;;;;;;5079246;28;20179;-81
2021/08/08 09:12:26;;;;;;;9.77;2.87;;;18.10;1.00;;;;;;5079699;28;20165;-80
2021/08/08 09:15:01;;;;;;;10.20;3.00;;;18.10;1.00;;;;;;5080364;28;20227;-82
2021/08/08 09:17:27;;;;;;;9.57;2.87;;;18.20;1.00;;;;;;5079985;28;20174;-82
2021/08/08 09:20:02;;;;;;;8.60;2.90;;;18.20;1.00;;;;;;5079404;28;20176;-79
2021/08/08 09:22:29;;;;;;;7.93;3.03;;;18.20;1.00;;;;;;5080662;28;20167;-82
2021/08/08 09:24:55;;;;;;;7.67;2.60;;;18.20;1.00;;;;;;5079348;28;20190;-80
2021/08/08 09:27:29;;;;;;;8.47;2.70;;;18.10;1.00;;;;;;5065548;28;20197;-81
2021/08/08 09:29:54;;;;;;;7.73;3.00;;;18.10;1.00;;;;;;5086574;28;20648;-80
2021/08/08 09:32:20;;;;;;;9.00;2.70;;;18.20;1.00;;;;;;5087537;28;20169;-81
2021/08/08 09:34:51;;;;;;;7.90;2.97;;;18.20;1.00;;;;;;5086091;28;20192;-80
2021/08/08 09:37:19;;;;;;;12.00;2.87;;;18.40;1.00;;;;;;5065552;28;20206;-82
2021/08/08 09:39:51;;;;;;;7.20;2.80;;;18.40;1.00;;;;;;5077257;28;20169;-81
2021/08/08 09:42:23;;;;;;;8.50;2.93;;;18.40;1.00;;;;;;5060719;28;20177;-80
2021/08/08 09:44:57;;;;;;;8.27;2.63;;;18.40;1.00;;;;;;5077570;28;20199;-80
2021/08/08 09:47:44;;;;;;;8.90;2.60;;;18.60;1.00;;;;;;5077359;28;20167;-79
2021/08/08 09:50:18;;;;;;;9.23;2.53;;;18.80;1.00;;;;;;5060072;28;20173;-80
2021/08/08 09:52:52;;;;;;;8.50;2.43;;;19.30;1.00;;;;;;5078853;28;20169;-80
2021/08/08 09:55:38;;;;;;;9.17;2.47;;;19.20;1.00;;;;;;5077792;28;20230;-78
2021/08/08 09:58:05;;;;;;;8.67;2.27;;;19.20;1.00;;;;;;5077210;28;20526;-79
2021/08/08 10:00:33;;;;;;;6.07;2.23;;;19.30;99.90;;;;;;5077038;28;20636;-82
2021/08/08 10:03:00;;;;;;;7.43;2.57;;;19.40;99.90;;;;;;5077479;28;20681;-80
2021/08/08 10:05:28;;;;;;;8.93;2.70;;;19.60;99.90;;;;;;5076594;28;20169;-81
2021/08/08 10:07:54;;;;;;;6.10;2.00;;;19.60;99.90;;;;;;5076476;28;20321;-80
2021/08/08 10:10:21;;;;;;;5.57;2.20;;;19.50;99.90;;;;;;5075692;28;20180;-79
2021/08/08 10:12:58;;;;;;;6.33;2.03;;;19.50;99.90;;;;;;5076145;28;20165;-82
2021/08/08 10:15:25;;;;;;;7.53;2.33;;;19.60;22.30;;;;;;5077156;28;20209;-81
2021/08/08 10:17:51;;;;;;;8.20;2.10;;;19.80;1.00;;;;;;5076262;28;20203;-83
2021/08/08 10:20:18;;;;;;;6.03;1.80;;;19.70;99.90;;;;;;5076024;28;20204;-80
2021/08/08 10:22:46;;;;;;;7.50;2.13;;;19.60;99.90;;;;;;5075645;28;20500;-83
2021/08/08 10:25:11;;;;;;;4.20;1.90;;;19.90;99.90;;;;;;5057931;28;20206;-82
2021/08/08 10:27:38;;;;;;;6.00;2.00;;;19.80;1.00;;;;;;5076489;28;20162;-81
2021/08/08 10:30:05;;;;;;;6.53;2.10;;;19.70;99.90;;;;;;5076017;28;20170;-82
2021/08/08 10:32:32;;;;;;;9.83;2.57;;;19.60;99.90;;;;;;5075518;28;20294;-83
2021/08/08 10:35:17;;;;;;;9.73;2.90;;;19.60;99.90;;;;;;5056837;28;20198;-80
2021/08/08 10:37:44;;;;;;;7.17;2.07;;;19.50;99.90;;;;;;5075953;28;20180;-81
2021/08/08 10:40:11;;;;;;;8.30;2.07;;;19.60;1.00;;;;;;5075557;28;20562;-81
2021/08/08 10:42:46;;;;;;;8.87;2.50;;;19.60;1.00;;;;;;5075845;28;20218;-81
2021/08/08 10:45:29;;;;;;;7.17;2.03;;;19.60;99.90;;;;;;5075767;28;20171;-82
2021/08/08 10:48:00;;;;;;;7.00;2.20;;;19.60;1.00;;;;;;5075074;28;20175;-82
2021/08/08 10:50:34;;;;;;;5.73;2.27;;;19.50;1.00;;;;;;5074614;28;20505;-80
2021/08/08 10:53:00;;;;;;;10.17;2.33;;;19.50;98.10;;;;;;5074278;28;20169;-84
2021/08/08 10:55:29;;;;;;;5.07;1.83;;;19.60;1.00;;;;;;5074659;28;20279;-79
2021/08/08 10:57:56;;;;;;;3.70;1.60;;;19.70;99.90;;;;;;5075243;28;20521;-84
2021/08/08 11:00:33;;;;;;;5.37;2.23;;;19.80;99.90;;;;;;5074924;28;20212;-81
2021/08/08 11:03:13;;;;;;;5.90;2.03;;;20.00;1.00;;;;;;5075386;28;20165;-82
2021/08/08 11:05:40;;;;;;;4.17;1.87;;;20.00;99.90;;;;;;5076457;28;20216;-84
2021/08/08 11:08:10;;;;;;;6.53;2.40;;;20.00;99.90;;;;;;5079446;28;20163;-79
2021/08/08 11:10:39;;;;;;;6.20;2.13;;;19.90;1.00;;;;;;5063073;28;20598;-80
2021/08/08 11:13:28;;;;;;;5.77;2.00;;;20.00;1.00;;;;;;5065507;28;20174;-82
2021/08/08 11:15:54;;;;;;;6.53;2.13;;;20.00;1.00;;;;;;5081655;28;20205;-79
2021/08/08 11:18:30;;;;;;;5.77;2.00;;;20.00;1.00;;;;;;5079498;28;20179;-77
2021/08/08 11:20:56;;;;;;;6.53;1.83;;;20.30;99.90;;;;;;5076981;28;20177;-80
2021/08/08 11:23:28;;;;;;;6.03;2.23;;;20.50;1.00;;;;;;5075523;28;20159;-82
2021/08/08 11:25:53;;;;;;;5.13;2.20;;;20.50;63.20;;;;;;5076401;28;20210;-80
2021/08/08 11:28:20;;;;;;;9.40;2.47;;;20.70;1.00;;;;;;5078321;28;20631;-78
2021/08/08 11:30:46;;;;;;;8.30;2.07;;;20.60;99.90;;;;;;5075741;28;20174;-79
2021/08/08 11:33:14;;;;;;;5.83;2.17;;;20.60;92.30;;;;;;5076146;28;20170;-82
2021/08/08 11:35:41;;;;;;;6.40;2.33;;;20.70;88.10;;;;;;5076583;28;20266;-81
2021/08/08 11:38:19;;;;;;;6.50;2.43;;;20.80;99.90;;;;;;5076514;28;20180;-80
2021/08/08 11:40:46;;;;;;;7.20;2.23;;;20.80;1.00;;;;;;5077338;28;20183;-80
2021/08/08 11:43:13;;;;;;;6.67;2.70;;;20.70;1.00;;;;;;5075638;28;20172;-81
2021/08/08 11:45:41;;;;;;;4.73;2.17;;;20.70;99.90;;;;;;5074122;28;20577;-80
2021/08/08 11:48:09;;;;;;;6.80;1.97;;;20.80;1.00;;;;;;5074608;28;20230;-81
2021/08/08 11:50:36;;;;;;;4.93;2.03;;;20.80;1.00;;;;;;5075229;28;20645;-81
2021/08/08 11:53:04;;;;;;;3.73;1.77;;;20.60;1.00;;;;;;5076462;28;20175;-81
2021/08/08 11:55:34;;;;;;;5.70;2.30;;;20.60;1.00;;;;;;5057148;28;20206;-82
2021/08/08 11:58:07;;;;;;;4.67;2.27;;;20.70;1.00;;;;;;5075049;28;20197;-81
2021/08/08 12:00:38;;;;;;;3.87;1.93;;;20.70;1.00;;;;;;5074519;28;20172;-81
2021/08/08 12:03:06;;;;;;;6.37;2.10;;;20.60;1.00;;;;;;5074031;28;20642;-80
2021/08/08 12:05:36;;;;;;;5.60;2.43;;;20.30;99.90;;;;;;5040472;28;20186;-78
2021/08/08 12:08:06;;;;;;;6.23;2.17;;;20.40;99.90;;;;;;5075772;28;20249;-82
2021/08/08 12:10:36;;;;;;;7.57;2.57;;;20.60;99.90;;;;;;5076448;28;20168;-83
2021/08/08 12:13:17;;;;;;;5.13;1.87;;;20.80;99.90;;;;;;5075108;28;20160;-80
2021/08/08 12:15:42;;;;;;;7.70;2.27;;;21.00;99.90;;;;;;5075138;28;20199;-80
2021/08/08 12:18:08;;;;;;;5.67;2.10;;;21.20;1.00;;;;;;5089834;28;20165;-76
2021/08/08 12:20:39;;;;;;;5.80;2.20;;;21.10;1.00;;;;;;5097661;28;20183;-77
2021/08/08 12:23:07;;;;;;;4.00;1.70;;;21.00;63.90;;;;;;5088427;28;20239;-77
2021/08/08 12:25:33;;;;;;;7.43;2.33;;;20.90;99.90;;;;;;5085916;28;20184;-79
2021/08/08 12:27:59;;;;;;;5.47;1.90;;;20.90;99.90;;;;;;5080920;28;20605;-77
2021/08/08 12:30:31;;;;;;;6.23;2.47;;;21.00;1.00;;;;;;5076507;28;20172;-81
2021/08/08 12:33:08;;;;;;;6.73;2.30;;;21.20;99.90;;;;;;5057269;28;20172;-81
2021/08/08 12:35:36;;;;;;;5.83;2.20;;;21.10;1.00;;;;;;5076901;28;20221;-80
2021/08/08 12:38:06;;;;;;;5.67;2.57;;;20.90;1.00;;;;;;5079519;28;20172;-81
2021/08/08 12:40:54;;;;;;;4.47;2.00;;;20.50;1.00;;;;;;5080787;28;20164;-81
2021/08/08 12:43:27;;;;;;;8.50;2.37;;;20.50;1.00;;;;;;5079731;28;20270;-80